Time;durP1;ratioP1;P1;durP2;ratioP2;P2;SDS_P1;SDS_P2;PMS_P1;PMS_P2;Temp;Humidity;BMP_temperature;BMP_pressure;BME280_temperature;BME280_humidity;BME280_pressure;Samples;Min_cycle;Max_cycle;Signal;HPM_P1;HPM_P2
2021/12/01 00:01:42;;;;;;;54.13;22.13;;;8.40;99.90;;;;;;4925496;29;20070;-52
2021/12/01 00:04:08;;;;;;;47.83;19.88;;;8.40;99.90;;;;;;4924812;29;20627;-52
2021/12/01 00:06:35;;;;;;;57.92;22.85;;;8.50;99.90;;;;;;4924316;29;20043;-51
2021/12/01 00:09:02;;;;;;;55.33;22.05;;;8.50;99.90;;;;;;4908455;29;20138;-50
2021/12/01 00:11:28;;;;;;;46.38;21.17;;;8.60;99.90;;;;;;4924610;29;20478;-52
2021/12/01 00:13:54;;;;;;;51.25;21.27;;;8.60;99.90;;;;;;4920758;29;20051;-52
2021/12/01 00:16:20;;;;;;;49.83;21.15;;;8.70;99.90;;;;;;4903083;29;20130;-51
2021/12/01 00:18:46;;;;;;;43.70;21.00;;;8.60;99.90;;;;;;4920258;29;20039;-52
2021/12/01 00:21:12;;;;;;;43.30;20.73;;;8.80;99.90;;;;;;4924484;29;20095;-52
2021/12/01 00:23:38;;;;;;;43.53;21.00;;;8.80;99.90;;;;;;4903902;29;20147;-52
2021/12/01 00:26:05;;;;;;;43.22;21.00;;;8.80;99.90;;;;;;4922235;29;20060;-51
2021/12/01 00:28:30;;;;;;;45.72;21.20;;;8.90;99.90;;;;;;4899603;29;20051;-51
2021/12/01 00:30:58;;;;;;;44.05;22.38;;;8.90;99.90;;;;;;4924285;29;20048;-52
2021/12/01 00:33:24;;;;;;;49.72;21.92;;;8.90;99.90;;;;;;4921008;29;20494;-51
2021/12/01 00:35:56;;;;;;;41.92;21.67;;;9.00;99.90;;;;;;4902077;29;20044;-49
2021/12/01 00:38:23;;;;;;;44.50;22.75;;;8.90;99.90;;;;;;4922383;29;20506;-49
2021/12/01 00:40:49;;;;;;;49.90;24.05;;;9.00;99.90;;;;;;4925317;29;20043;-51
2021/12/01 00:43:17;;;;;;;52.65;24.15;;;9.00;99.90;;;;;;4919549;29;20055;-49
2021/12/01 00:45:50;;;;;;;49.00;23.85;;;9.00;99.90;;;;;;4915262;29;20521;-51
2021/12/01 00:48:18;;;;;;;47.97;23.85;;;9.10;99.90;;;;;;4918085;29;20581;-52
2021/12/01 00:50:44;;;;;;;46.05;24.42;;;9.10;99.90;;;;;;4918537;29;20053;-52
2021/12/01 00:53:11;;;;;;;50.72;25.30;;;9.10;99.90;;;;;;4897841;29;20063;-51
2021/12/01 00:55:37;;;;;;;50.25;24.30;;;9.10;99.90;;;;;;4897464;29;20059;-53
2021/12/01 00:58:04;;;;;;;44.70;24.23;;;9.10;99.90;;;;;;4884509;29;20079;-52
2021/12/01 01:00:31;;;;;;;44.60;23.30;;;9.10;99.90;;;;;;4918846;29;20634;-51
2021/12/01 01:02:58;;;;;;;41.85;22.23;;;9.10;99.90;;;;;;4918901;29;20081;-51
2021/12/01 01:05:25;;;;;;;45.90;22.48;;;9.20;99.90;;;;;;4916376;29;20468;-50
2021/12/01 01:07:51;;;;;;;38.97;21.63;;;9.20;99.90;;;;;;4915543;29;20114;-51
2021/12/01 01:18:44;;;;;;;37.22;20.00;;;9.20;99.90;;;;;;4914947;29;20051;-51
2021/12/01 01:21:10;;;;;;;42.72;19.70;;;9.30;99.90;;;;;;4913018;29;20123;-51
2021/12/01 01:23:37;;;;;;;40.88;20.95;;;9.30;99.90;;;;;;4914743;29;22495;-50
2021/12/01 01:26:05;;;;;;;34.70;18.42;;;9.20;99.90;;;;;;4913801;29;21078;-53
2021/12/01 01:28:31;;;;;;;34.95;17.88;;;9.30;99.90;;;;;;4917880;29;20642;-53
2021/12/01 01:30:58;;;;;;;33.67;16.52;;;9.20;99.90;;;;;;4914834;29;20415;-50
2021/12/01 01:33:24;;;;;;;34.40;16.23;;;9.20;99.90;;;;;;4899007;29;20079;-51
2021/12/01 01:35:52;;;;;;;33.17;16.75;;;9.30;99.90;;;;;;4917712;29;20036;-53
2021/12/01 01:38:18;;;;;;;27.38;15.35;;;9.30;99.90;;;;;;4900184;29;20044;-51
2021/12/01 01:40:44;;;;;;;31.20;15.10;;;9.30;99.90;;;;;;4917059;29;20044;-52
2021/12/01 01:43:11;;;;;;;24.55;14.50;;;9.20;99.90;;;;;;4902658;29;20490;-51
2021/12/01 01:45:36;;;;;;;25.65;14.20;;;9.30;99.90;;;;;;4926925;29;20054;-51
2021/12/01 01:48:04;;;;;;;25.92;14.07;;;9.30;99.90;;;;;;4927231;29;20513;-51
2021/12/01 01:50:37;;;;;;;25.92;14.43;;;9.30;99.90;;;;;;4925279;29;20479;-51
2021/12/01 01:53:04;;;;;;;;;;;9.30;99.90;;;;;;4929096;29;20044;-51
2021/12/01 01:55:31;;;;;;;25.83;12.63;;;9.20;99.90;;;;;;4928166;29;19918;-49
2021/12/01 01:57:56;;;;;;;29.63;12.20;;;9.30;99.90;;;;;;4923225;29;20058;-50
2021/12/01 02:00:22;;;;;;;31.35;11.98;;;9.30;99.90;;;;;;4903345;29;20054;-49
2021/12/01 02:02:49;;;;;;;24.90;10.65;;;9.30;99.90;;;;;;4922198;29;20055;-49
2021/12/01 02:05:15;;;;;;;20.42;8.45;;;9.30;99.90;;;;;;4918442;29;20059;-51
2021/12/01 02:07:42;;;;;;;19.42;7.65;;;9.30;99.90;;;;;;4902069;29;20051;-50
2021/12/01 02:10:09;;;;;;;16.38;7.32;;;9.30;99.90;;;;;;4898483;29;20099;-48
2021/12/01 02:12:37;;;;;;;15.63;6.40;;;9.40;99.90;;;;;;4901064;29;20805;-49
2021/12/01 02:15:03;;;;;;;18.60;5.88;;;9.50;99.90;;;;;;4919591;29;20126;-51
2021/12/01 02:17:29;;;;;;;19.50;5.50;;;9.40;99.90;;;;;;4922425;29;20493;-51
2021/12/01 02:19:55;;;;;;;20.08;5.05;;;9.40;99.90;;;;;;4917392;29;20111;-48
2021/12/01 02:22:21;;;;;;;17.13;5.25;;;9.40;99.90;;;;;;4919166;29;20055;-49
2021/12/01 02:24:47;;;;;;;13.35;4.30;;;9.40;99.90;;;;;;4919335;29;20052;-51
2021/12/01 02:27:13;;;;;;;15.77;4.47;;;9.40;99.90;;;;;;4922379;29;20047;-50
2021/12/01 02:29:39;;;;;;;8.50;3.88;;;9.40;99.90;;;;;;4886872;29;20515;-48
2021/12/01 02:32:06;;;;;;;9.50;3.72;;;9.50;99.90;;;;;;4921777;29;20312;-50
2021/12/01 02:34:38;;;;;;;7.68;2.85;;;9.40;99.90;;;;;;4899419;29;20040;-53
2021/12/01 02:37:05;;;;;;;9.27;2.80;;;9.50;99.90;;;;;;4920041;29;20070;-52
2021/12/01 02:39:31;;;;;;;9.32;2.25;;;9.50;99.90;;;;;;4917999;29;20083;-50
2021/12/01 02:42:00;;;;;;;7.47;1.98;;;9.40;99.90;;;;;;4918806;29;20055;-49
2021/12/01 02:44:27;;;;;;;5.80;2.25;;;9.50;99.90;;;;;;4920903;29;20051;-52
2021/12/01 02:46:54;;;;;;;5.45;1.75;;;9.40;99.90;;;;;;4926965;29;20519;-51
2021/12/01 02:49:22;;;;;;;4.43;1.90;;;9.40;99.90;;;;;;4924731;29;20051;-51
2021/12/01 02:51:49;;;;;;;14.73;3.08;;;9.40;99.90;;;;;;4916859;29;21802;-51
2021/12/01 02:54:15;;;;;;;7.57;2.47;;;9.40;99.90;;;;;;4916765;29;20103;-50
2021/12/01 02:56:46;;;;;;;10.05;2.55;;;9.40;99.90;;;;;;4919159;29;20039;-52
2021/12/01 02:59:13;;;;;;;9.00;2.78;;;9.50;99.90;;;;;;4921992;29;20071;-52
2021/12/01 03:01:39;;;;;;;12.00;3.00;;;9.50;99.90;;;;;;4917537;29;20056;-51
2021/12/01 03:04:06;;;;;;;12.55;3.13;;;9.50;99.90;;;;;;4921358;29;20539;-49
2021/12/01 03:06:35;;;;;;;11.43;2.70;;;9.50;99.90;;;;;;4917046;29;20114;-50
2021/12/01 03:09:02;;;;;;;9.57;2.30;;;9.50;99.90;;;;;;4918120;29;20484;-52
2021/12/01 03:11:27;;;;;;;11.93;2.55;;;9.50;99.90;;;;;;4914298;29;20395;-52
2021/12/01 03:13:54;;;;;;;11.25;2.33;;;9.50;99.90;;;;;;4918635;29;20040;-49
2021/12/01 03:16:20;;;;;;;11.88;2.58;;;9.50;99.90;;;;;;4918316;29;20039;-50
2021/12/01 03:18:46;;;;;;;10.48;2.30;;;9.50;99.90;;;;;;4901857;29;20408;-49
2021/12/01 03:21:13;;;;;;;12.57;2.45;;;9.50;99.90;;;;;;4917987;29;20044;-51
2021/12/01 03:23:39;;;;;;;11.13;2.08;;;9.50;99.90;;;;;;4897741;29;20411;-52
2021/12/01 03:26:06;;;;;;;9.75;2.08;;;9.60;99.90;;;;;;4915877;29;20430;-50
2021/12/01 03:28:32;;;;;;;9.90;2.20;;;9.60;99.90;;;;;;4900023;29;20047;-52
2021/12/01 03:30:58;;;;;;;10.80;2.00;;;9.60;99.90;;;;;;4916004;29;20083;-50
2021/12/01 03:33:24;;;;;;;10.32;1.85;;;9.60;99.90;;;;;;4921268;29;20499;-51
2021/12/01 03:35:52;;;;;;;9.35;1.80;;;9.60;99.90;;;;;;4916249;29;20047;-52
2021/12/01 03:38:20;;;;;;;8.48;2.20;;;9.60;99.90;;;;;;4897413;29;20638;-52
2021/12/01 03:40:46;;;;;;;8.85;2.25;;;9.60;99.90;;;;;;4898379;29;20052;-51
2021/12/01 03:43:12;;;;;;;14.50;2.72;;;9.50;99.90;;;;;;4918378;29;20044;-51
2021/12/01 03:45:38;;;;;;;17.13;2.88;;;9.60;99.90;;;;;;4920712;29;20079;-51
2021/12/01 03:48:04;;;;;;;14.65;3.15;;;9.60;99.90;;;;;;4924413;29;20055;-52
2021/12/01 03:50:30;;;;;;;19.48;3.70;;;9.60;99.90;;;;;;4922453;29;20051;-49
2021/12/01 03:52:56;;;;;;;23.92;3.22;;;9.60;99.90;;;;;;4921609;29;20055;-53
2021/12/01 03:55:22;;;;;;;24.10;3.33;;;9.60;99.90;;;;;;4917390;29;22539;-48
2021/12/01 03:57:48;;;;;;;17.70;3.03;;;9.60;99.90;;;;;;4919315;29;20470;-52
2021/12/01 04:00:16;;;;;;;16.98;3.25;;;9.60;99.90;;;;;;4922106;29;20075;-51
2021/12/01 04:02:43;;;;;;;21.70;3.28;;;9.60;99.90;;;;;;4922251;29;20059;-52
2021/12/01 04:05:09;;;;;;;18.15;3.00;;;9.60;99.90;;;;;;4915458;29;20087;-51
2021/12/01 04:07:35;;;;;;;22.35;3.40;;;9.60;99.90;;;;;;4919546;29;20055;-52
2021/12/01 04:10:04;;;;;;;18.08;3.33;;;9.60;99.90;;;;;;4918607;29;20194;-50
2021/12/01 04:12:29;;;;;;;18.65;3.60;;;9.60;99.90;;;;;;4897678;29;20130;-53
2021/12/01 04:14:55;;;;;;;24.48;4.03;;;9.50;99.90;;;;;;4916512;29;20410;-52
2021/12/01 04:17:21;;;;;;;22.38;3.33;;;9.50;99.90;;;;;;4897418;29;20048;-51
2021/12/01 04:19:47;;;;;;;17.77;2.85;;;9.50;99.90;;;;;;4914748;29;20098;-53
2021/12/01 04:22:13;;;;;;;17.90;3.35;;;9.50;99.90;;;;;;4915403;29;21565;-51
2021/12/01 04:24:39;;;;;;;15.40;3.15;;;9.50;99.90;;;;;;4911979;29;20052;-52
2021/12/01 04:27:05;;;;;;;11.88;3.17;;;9.50;99.90;;;;;;4915930;29;20043;-50
2021/12/01 04:29:31;;;;;;;16.13;2.65;;;9.50;99.90;;;;;;4916413;29;20051;-52
2021/12/01 04:31:57;;;;;;;14.23;3.15;;;9.50;99.90;;;;;;4908827;29;20048;-52
2021/12/01 04:34:23;;;;;;;11.05;2.42;;;9.50;99.90;;;;;;4923275;29;20039;-51
2021/12/01 04:36:50;;;;;;;19.67;3.03;;;9.50;99.90;;;;;;4925696;29;20102;-53
2021/12/01 04:39:18;;;;;;;10.20;2.85;;;9.50;99.90;;;;;;4923252;29;20047;-52
2021/12/01 04:41:52;;;;;;;12.68;2.65;;;9.40;99.90;;;;;;4924559;29;20074;-50
2021/12/01 04:44:21;;;;;;;10.23;2.30;;;9.40;99.90;;;;;;4924693;29;20049;-52
2021/12/01 04:46:48;;;;;;;8.82;2.45;;;9.40;99.90;;;;;;4924351;29;20099;-49
2021/12/01 04:49:19;;;;;;;11.07;2.60;;;9.50;99.90;;;;;;4906105;29;20055;-51
2021/12/01 04:51:48;;;;;;;10.43;2.60;;;9.50;99.90;;;;;;4895530;29;20482;-52
2021/12/01 04:54:14;;;;;;;8.30;2.40;;;9.50;99.90;;;;;;4914171;29;20130;-52
2021/12/01 04:56:42;;;;;;;7.72;2.78;;;9.50;99.90;;;;;;4899321;29;20059;-53
2021/12/01 04:59:09;;;;;;;6.85;3.47;;;9.50;99.90;;;;;;4918506;29;20062;-52
2021/12/01 05:01:35;;;;;;;12.98;4.10;;;9.50;99.90;;;;;;4917682;29;20063;-52
2021/12/01 05:04:02;;;;;;;8.68;4.88;;;9.50;99.90;;;;;;4918878;29;21508;-50
2021/12/01 05:06:28;;;;;;;9.63;4.03;;;9.50;99.90;;;;;;4917479;29;20086;-52
2021/12/01 05:08:53;;;;;;;7.88;5.35;;;9.50;99.90;;;;;;4902174;29;20047;-51
2021/12/01 05:11:19;;;;;;;7.45;4.50;;;9.60;99.90;;;;;;4895284;29;20071;-51
2021/12/01 05:13:46;;;;;;;5.90;4.00;;;9.50;99.90;;;;;;4915091;29;20058;-51
2021/12/01 05:16:12;;;;;;;4.57;4.18;;;9.50;99.90;;;;;;4918094;29;20114;-51
2021/12/01 05:18:38;;;;;;;4.97;3.25;;;9.50;99.90;;;;;;4900681;29;20134;-52
2021/12/01 05:21:04;;;;;;;4.88;2.72;;;9.50;99.90;;;;;;4912428;29;20051;-50
2021/12/01 05:23:30;;;;;;;2.83;2.40;;;9.50;99.90;;;;;;4914078;29;20658;-51
2021/12/01 05:25:56;;;;;;;2.00;1.90;;;9.40;99.90;;;;;;4897459;29;20071;-50
2021/12/01 05:28:22;;;;;;;2.17;1.50;;;9.50;99.90;;;;;;4896760;29;20039;-50
2021/12/01 05:30:48;;;;;;;3.38;1.52;;;9.50;99.90;;;;;;4916242;29;20122;-51
2021/12/01 05:33:15;;;;;;;1.40;1.20;;;9.50;99.90;;;;;;4903478;29;20116;-53
2021/12/01 05:35:46;;;;;;;1.17;1.08;;;9.40;99.90;;;;;;4914510;29;20459;-54
2021/12/01 05:38:12;;;;;;;1.38;1.20;;;9.50;99.90;;;;;;4916790;29;20071;-53
2021/12/01 05:40:39;;;;;;;1.25;1.15;;;9.40;99.90;;;;;;4898705;29;20043;-52
2021/12/01 05:43:04;;;;;;;1.10;1.00;;;9.40;99.90;;;;;;4916294;29;20047;-51
2021/12/01 05:45:30;;;;;;;0.90;0.90;;;9.40;99.90;;;;;;4894485;29;20051;-52
2021/12/01 05:47:56;;;;;;;1.48;1.23;;;9.40;99.90;;;;;;4918492;29;20570;-53
2021/12/01 05:50:22;;;;;;;1.10;1.00;;;9.30;99.90;;;;;;4918185;29;20056;-50
2021/12/01 05:52:48;;;;;;;0.90;0.90;;;9.30;99.90;;;;;;4915323;29;20494;-54
2021/12/01 05:55:14;;;;;;;1.65;1.30;;;9.40;99.90;;;;;;4894704;29;20062;-50
2021/12/01 05:57:40;;;;;;;2.92;1.40;;;9.30;99.90;;;;;;4914016;29;20321;-52
2021/12/01 06:00:10;;;;;;;2.28;1.58;;;9.30;99.90;;;;;;4915973;29;20451;-52
2021/12/01 06:02:36;;;;;;;1.98;1.75;;;9.30;99.90;;;;;;4924506;29;20533;-52
2021/12/01 06:05:03;;;;;;;2.88;2.28;;;9.30;99.90;;;;;;4904143;29;20043;-51
2021/12/01 06:07:28;;;;;;;4.95;2.22;;;9.20;99.90;;;;;;4904871;29;20059;-53
2021/12/01 06:09:54;;;;;;;5.45;2.92;;;9.20;99.90;;;;;;4915589;29;20086;-53
2021/12/01 06:12:20;;;;;;;2.83;2.30;;;9.20;99.90;;;;;;4894858;29;20051;-52
2021/12/01 06:14:46;;;;;;;2.55;2.35;;;9.20;99.90;;;;;;4894949;29;20043;-52
2021/12/01 06:17:15;;;;;;;3.58;2.65;;;9.20;99.90;;;;;;4917090;29;22660;-52
2021/12/01 06:19:41;;;;;;;3.45;2.65;;;9.20;99.90;;;;;;4880237;29;20475;-50
2021/12/01 06:22:07;;;;;;;3.80;2.85;;;9.20;99.90;;;;;;4917150;29;20052;-53
2021/12/01 06:24:34;;;;;;;2.88;2.63;;;9.10;99.90;;;;;;4903910;29;20047;-50
2021/12/01 06:27:00;;;;;;;2.75;2.35;;;9.10;99.90;;;;;;4925040;29;20055;-51
2021/12/01 06:29:26;;;;;;;5.57;2.60;;;9.10;99.90;;;;;;4925085;29;20044;-52
2021/12/01 06:31:51;;;;;;;3.05;2.58;;;9.10;99.90;;;;;;4920624;29;20051;-54
2021/12/01 06:34:17;;;;;;;2.40;2.20;;;9.10;99.90;;;;;;4921909;29;20459;-51
2021/12/01 06:36:43;;;;;;;2.88;2.13;;;9.10;99.90;;;;;;4920786;29;20517;-51
2021/12/01 06:39:10;;;;;;;2.40;1.98;;;9.10;99.90;;;;;;4920024;29;20052;-52
2021/12/01 06:41:36;;;;;;;2.60;2.00;;;9.10;99.90;;;;;;4906010;29;20043;-49
2021/12/01 06:44:02;;;;;;;2.47;2.00;;;9.10;99.90;;;;;;4922948;29;20055;-52
2021/12/01 06:46:29;;;;;;;1.85;1.75;;;9.10;99.90;;;;;;4924486;29;20047;-51
2021/12/01 06:48:56;;;;;;;3.28;2.03;;;9.00;99.90;;;;;;4928421;29;20106;-52
2021/12/01 06:51:22;;;;;;;1.85;1.67;;;9.00;99.90;;;;;;4923027;29;20131;-50
2021/12/01 06:53:48;;;;;;;1.90;1.70;;;9.00;99.90;;;;;;4922672;29;20052;-52
2021/12/01 06:56:16;;;;;;;1.70;1.60;;;9.00;99.90;;;;;;4922687;29;20134;-52
2021/12/01 06:58:42;;;;;;;2.03;1.50;;;9.00;99.90;;;;;;4924159;29;20163;-50
2021/12/01 07:01:09;;;;;;;2.60;1.92;;;9.00;99.90;;;;;;4922541;29;20143;-52
2021/12/01 07:03:35;;;;;;;2.85;1.95;;;9.00;99.90;;;;;;4924173;29;20549;-51
2021/12/01 07:06:01;;;;;;;3.53;1.88;;;9.00;99.90;;;;;;4926757;29;20036;-50
2021/12/01 07:08:27;;;;;;;2.20;2.00;;;9.00;99.90;;;;;;4920210;29;20082;-51
2021/12/01 07:10:53;;;;;;;3.83;2.20;;;9.00;99.90;;;;;;4921051;29;20360;-52
2021/12/01 07:13:19;;;;;;;3.30;2.50;;;9.00;99.90;;;;;;4905500;29;20043;-51
2021/12/01 07:15:45;;;;;;;2.70;2.50;;;8.90;99.90;;;;;;4899985;29;20048;-50
2021/12/01 07:18:11;;;;;;;2.65;2.45;;;8.90;99.90;;;;;;4927587;29;20047;-51
2021/12/01 07:20:37;;;;;;;2.88;2.58;;;8.90;99.90;;;;;;4926927;29;20102;-52
2021/12/01 07:23:03;;;;;;;4.03;3.03;;;8.90;99.90;;;;;;4926939;29;20471;-50
2021/12/01 07:25:30;;;;;;;4.00;2.95;;;8.90;99.90;;;;;;4907101;29;20047;-49
2021/12/01 07:27:56;;;;;;;3.47;3.05;;;8.90;99.90;;;;;;4926933;29;20044;-52
2021/12/01 07:30:22;;;;;;;3.75;3.22;;;8.90;99.90;;;;;;4927538;29;20573;-50
2021/12/01 07:32:51;;;;;;;5.35;3.15;;;8.90;99.90;;;;;;4927046;29;20044;-52
2021/12/01 07:35:18;;;;;;;4.22;3.38;;;8.90;99.90;;;;;;4924052;29;20053;-50
2021/12/01 07:37:44;;;;;;;5.45;3.60;;;8.90;99.90;;;;;;4922556;29;20138;-52
2021/12/01 07:40:11;;;;;;;5.45;3.75;;;8.90;99.90;;;;;;4921363;29;20047;-50
2021/12/01 07:42:37;;;;;;;6.60;3.70;;;8.90;99.90;;;;;;4924513;29;20164;-51
2021/12/01 07:45:04;;;;;;;5.82;4.05;;;8.90;99.90;;;;;;4906740;29;20082;-50
2021/12/01 07:47:31;;;;;;;4.68;3.50;;;8.90;99.90;;;;;;4925279;29;20110;-48
2021/12/01 07:49:57;;;;;;;7.97;3.85;;;9.00;99.90;;;;;;4905534;29;20194;-52
2021/12/01 07:52:22;;;;;;;9.60;4.35;;;9.00;99.90;;;;;;4924562;29;20044;-51
2021/12/01 07:54:48;;;;;;;10.20;4.60;;;9.00;99.90;;;;;;4897503;29;20090;-50
2021/12/01 07:57:15;;;;;;;7.85;4.00;;;9.00;99.90;;;;;;4912744;29;20055;-51
2021/12/01 07:59:41;;;;;;;9.65;4.03;;;9.10;99.90;;;;;;4902289;29;20085;-51
2021/12/01 08:02:07;;;;;;;9.52;5.15;;;9.10;99.90;;;;;;4922912;29;20162;-54
2021/12/01 08:04:33;;;;;;;8.73;4.78;;;9.10;99.90;;;;;;4917748;29;20040;-52
2021/12/01 08:07:00;;;;;;;7.30;4.20;;;9.10;99.90;;;;;;4903718;29;20051;-52
2021/12/01 08:09:27;;;;;;;9.60;4.47;;;9.10;99.90;;;;;;4922253;29;20048;-54
2021/12/01 08:11:54;;;;;;;10.82;4.20;;;9.10;99.90;;;;;;4896780;29;20055;-51
2021/12/01 08:14:20;;;;;;;8.05;3.83;;;9.10;99.90;;;;;;4904148;29;20494;-52
2021/12/01 08:16:46;;;;;;;10.27;4.20;;;9.10;99.90;;;;;;4921386;29;20043;-53
2021/12/01 08:19:12;;;;;;;7.35;4.10;;;9.20;99.90;;;;;;4904839;29;20048;-54
2021/12/01 08:21:39;;;;;;;6.53;4.18;;;9.20;99.90;;;;;;4919966;29;20128;-52
2021/12/01 08:24:05;;;;;;;7.45;4.07;;;9.10;99.90;;;;;;4920673;29;20062;-51
2021/12/01 08:26:31;;;;;;;14.27;3.90;;;9.20;99.90;;;;;;4903075;29;20047;-54
2021/12/01 08:28:57;;;;;;;6.82;4.20;;;9.20;99.90;;;;;;4907258;29;20051;-52
2021/12/01 08:31:23;;;;;;;6.10;4.05;;;9.20;99.90;;;;;;4921819;29;20168;-54
2021/12/01 08:33:50;;;;;;;4.30;2.40;;;9.10;99.90;;;;;;4915624;29;20099;-54
2021/12/01 08:36:16;;;;;;;5.72;2.80;;;9.10;99.90;;;;;;4904443;29;20048;-51
2021/12/01 08:38:43;;;;;;;4.25;2.20;;;9.10;99.90;;;;;;4920456;29;20474;-50
2021/12/01 08:41:10;;;;;;;6.82;2.13;;;9.10;99.90;;;;;;4919232;29;20117;-51
2021/12/01 08:43:36;;;;;;;6.78;2.15;;;9.10;99.90;;;;;;4918097;29;20462;-51
2021/12/01 08:46:03;;;;;;;8.27;2.25;;;9.10;99.90;;;;;;4921067;29;20055;-50
2021/12/01 08:48:29;;;;;;;12.70;2.25;;;9.10;99.90;;;;;;4923095;29;20063;-53
2021/12/01 08:50:56;;;;;;;7.50;2.13;;;9.10;99.90;;;;;;4920670;29;20409;-51
2021/12/01 08:53:23;;;;;;;11.25;2.15;;;9.00;99.90;;;;;;4923747;29;20091;-50
2021/12/01 08:55:49;;;;;;;10.70;1.92;;;9.00;99.90;;;;;;4890539;29;20130;-52
2021/12/01 08:58:16;;;;;;;13.05;2.50;;;9.00;99.90;;;;;;4922188;29;20049;-51
2021/12/01 09:00:45;;;;;;;8.45;2.10;;;9.00;99.90;;;;;;4920454;29;20071;-53
2021/12/01 09:03:16;;;;;;;14.30;2.35;;;9.00;99.90;;;;;;4918542;29;20051;-50
2021/12/01 09:05:44;;;;;;;10.07;2.22;;;9.00;99.90;;;;;;4911621;29;20106;-50
2021/12/01 09:08:10;;;;;;;18.95;2.00;;;8.90;99.90;;;;;;4918902;29;20303;-49
2021/12/01 09:10:36;;;;;;;10.32;1.85;;;8.90;99.90;;;;;;4922106;29;20047;-51
2021/12/01 09:13:04;;;;;;;9.23;1.67;;;8.90;99.90;;;;;;4920567;29;20043;-50
2021/12/01 09:15:31;;;;;;;10.02;2.00;;;8.90;99.90;;;;;;4920101;29;20506;-52
2021/12/01 09:17:57;;;;;;;9.38;2.28;;;8.90;99.90;;;;;;4925727;29;20487;-51
2021/12/01 09:20:24;;;;;;;7.53;1.70;;;8.80;99.90;;;;;;4920679;29;20498;-53
2021/12/01 09:22:50;;;;;;;12.02;2.08;;;8.80;99.90;;;;;;4923731;29;20058;-52
2021/12/01 09:25:17;;;;;;;10.70;2.05;;;8.80;99.90;;;;;;4918283;29;20086;-49
2021/12/01 09:27:45;;;;;;;7.15;1.73;;;8.80;99.90;;;;;;4899829;29;20055;-53
2021/12/01 09:30:16;;;;;;;10.25;1.75;;;8.80;99.90;;;;;;4921668;29;20052;-52
2021/12/01 09:32:42;;;;;;;7.15;1.42;;;8.80;99.90;;;;;;4920007;29;20044;-51
2021/12/01 09:35:10;;;;;;;6.50;1.42;;;8.70;99.90;;;;;;4920611;29;20415;-53
2021/12/01 09:37:37;;;;;;;11.65;2.20;;;8.70;99.90;;;;;;4921529;29;20552;-52
2021/12/01 09:40:06;;;;;;;21.55;2.25;;;8.70;99.90;;;;;;4922631;29;20104;-49
2021/12/01 09:42:32;;;;;;;10.40;1.80;;;8.70;99.90;;;;;;4922751;29;20059;-52
2021/12/01 09:44:58;;;;;;;8.48;1.63;;;8.70;99.90;;;;;;4904866;29;20110;-52
2021/12/01 09:47:24;;;;;;;11.90;1.95;;;8.70;99.90;;;;;;4902145;29;20130;-50
2021/12/01 09:49:51;;;;;;;13.38;1.95;;;8.70;99.90;;;;;;4921048;29;20047;-52
2021/12/01 09:52:19;;;;;;;10.00;1.45;;;8.70;99.90;;;;;;4921829;29;20036;-51
2021/12/01 09:54:45;;;;;;;8.98;1.70;;;8.70;99.90;;;;;;4921100;29;20411;-52
2021/12/01 09:57:14;;;;;;;10.02;1.70;;;8.70;99.90;;;;;;4904522;29;20043;-49
2021/12/01 09:59:41;;;;;;;10.75;2.00;;;8.70;99.90;;;;;;4912328;29;20134;-51
2021/12/01 10:02:08;;;;;;;18.63;1.65;;;8.70;99.90;;;;;;4905162;29;20047;-51
2021/12/01 10:04:34;;;;;;;14.65;2.35;;;8.70;99.90;;;;;;4918136;29;20059;-50
2021/12/01 10:07:17;;;;;;;12.48;2.15;;;8.70;99.90;;;;;;4926654;29;20048;-50
2021/12/01 10:09:46;;;;;;;16.25;2.15;;;8.80;99.90;;;;;;4918483;29;20197;-53
2021/12/01 10:12:12;;;;;;;14.00;2.03;;;8.80;99.90;;;;;;4921960;29;20044;-52
2021/12/01 10:14:44;;;;;;;14.63;2.42;;;9.00;99.90;;;;;;4923011;29;20411;-52
2021/12/01 10:17:10;;;;;;;19.40;2.78;;;9.00;99.90;;;;;;4923165;29;20079;-51
2021/12/01 10:19:36;;;;;;;17.92;3.00;;;9.00;99.90;;;;;;4922430;29;20510;-51
2021/12/01 10:22:11;;;;;;;19.67;3.00;;;9.00;99.90;;;;;;4923214;29;20394;-52
2021/12/01 10:24:39;;;;;;;19.25;2.67;;;9.00;99.90;;;;;;4923415;29;20040;-49
2021/12/01 10:27:14;;;;;;;13.73;2.47;;;9.00;99.90;;;;;;4921650;29;20063;-53
2021/12/01 10:29:45;;;;;;;22.52;3.40;;;9.00;99.90;;;;;;4923968;29;20552;-51
2021/12/01 10:32:11;;;;;;;17.58;3.17;;;9.00;99.90;;;;;;4923552;29;20047;-49
2021/12/01 10:34:44;;;;;;;12.60;2.80;;;9.00;99.90;;;;;;4922841;29;20399;-51
2021/12/01 10:37:22;;;;;;;18.38;2.50;;;9.00;99.90;;;;;;4924527;29;20043;-52
2021/12/01 10:40:08;;;;;;;18.48;2.80;;;9.00;99.90;;;;;;4927613;29;20054;-50
2021/12/01 10:42:35;;;;;;;15.10;2.72;;;8.90;99.90;;;;;;4925412;29;20056;-50
2021/12/01 10:45:07;;;;;;;13.10;2.65;;;8.90;99.90;;;;;;4898595;29;20150;-51
2021/12/01 10:47:40;;;;;;;13.13;2.15;;;8.90;99.90;;;;;;4922952;29;20067;-53
2021/12/01 10:50:08;;;;;;;13.02;2.40;;;8.80;99.90;;;;;;4924977;29;20062;-52
2021/12/01 10:52:37;;;;;;;20.08;2.90;;;8.90;99.90;;;;;;4921340;29;20047;-50
2021/12/01 10:55:03;;;;;;;14.38;2.70;;;8.90;99.90;;;;;;4908290;29;20128;-51
2021/12/01 10:57:29;;;;;;;20.85;3.17;;;8.90;99.90;;;;;;4911057;29;20120;-50
2021/12/01 10:59:55;;;;;;;11.68;2.35;;;8.90;99.90;;;;;;4926716;29;20174;-52
2021/12/01 11:02:22;;;;;;;14.93;2.72;;;9.00;99.90;;;;;;4914318;29;20501;-51
2021/12/01 11:04:51;;;;;;;16.25;2.60;;;9.00;99.90;;;;;;4925514;29;20727;-51
2021/12/01 11:07:43;;;;;;;14.43;2.70;;;9.00;99.90;;;;;;4921832;29;20048;-50
2021/12/01 11:10:14;;;;;;;15.20;2.72;;;9.00;99.90;;;;;;4896920;29;20150;-51
2021/12/01 11:12:41;;;;;;;12.57;2.53;;;9.00;99.90;;;;;;4906990;29;20044;-51
2021/12/01 11:15:28;;;;;;;14.45;2.25;;;9.00;99.90;;;;;;4906630;29;20048;-51
2021/12/01 11:17:56;;;;;;;13.23;2.17;;;9.00;99.90;;;;;;4922794;29;20048;-49
2021/12/01 11:20:58;;;;;;;17.02;2.72;;;9.00;99.90;;;;;;4922769;29;20044;-51
2021/12/01 11:23:30;;;;;;;15.98;2.60;;;9.00;99.90;;;;;;4913192;29;20056;-50
2021/12/01 11:26:07;;;;;;;16.20;3.03;;;9.00;99.90;;;;;;4906879;29;20054;-51
2021/12/01 11:28:46;;;;;;;20.30;2.60;;;9.00;99.90;;;;;;4928025;29;20050;-51
2021/12/01 11:31:22;;;;;;;22.95;3.90;;;9.00;99.90;;;;;;4925714;29;20051;-51
2021/12/01 11:33:55;;;;;;;29.55;3.53;;;9.00;99.90;;;;;;4924928;29;20062;-52
2021/12/01 11:36:30;;;;;;;27.70;4.00;;;9.00;99.90;;;;;;4928730;29;20191;-52
2021/12/01 11:38:59;;;;;;;24.77;4.13;;;8.90;99.90;;;;;;4926847;29;20047;-51
2021/12/01 11:41:27;;;;;;;29.45;4.75;;;8.80;99.90;;;;;;4927692;29;20059;-52
2021/12/01 11:43:54;;;;;;;28.08;4.70;;;8.70;99.90;;;;;;4909577;29;20102;-50
2021/12/01 11:46:20;;;;;;;26.77;4.13;;;8.60;99.90;;;;;;4905632;29;20055;-49
2021/12/01 11:48:50;;;;;;;33.35;4.30;;;8.50;99.90;;;;;;4919588;29;20410;-52
2021/12/01 11:51:30;;;;;;;23.85;4.10;;;8.40;99.90;;;;;;4920015;29;20087;-50
2021/12/01 11:54:16;;;;;;;28.77;4.95;;;8.40;99.90;;;;;;4920552;29;20047;-51
2021/12/01 11:56:55;;;;;;;29.77;4.93;;;8.30;99.90;;;;;;4924382;29;20475;-48
2021/12/01 11:59:31;;;;;;;24.60;3.67;;;8.30;99.90;;;;;;4924335;29;20048;-52
2021/12/01 12:02:19;;;;;;;28.92;4.70;;;8.20;99.90;;;;;;4925876;29;20051;-49
2021/12/01 12:04:46;;;;;;;25.95;3.92;;;8.20;99.90;;;;;;4892651;29;20141;-52
2021/12/01 12:07:16;;;;;;;24.40;3.65;;;8.20;99.90;;;;;;4925040;29;20051;-53
2021/12/01 12:10:01;;;;;;;25.83;4.05;;;8.20;99.90;;;;;;4920976;29;20051;-50
2021/12/01 12:12:26;;;;;;;28.00;3.60;;;8.20;99.90;;;;;;4895327;29;20044;-50
2021/12/01 12:14:54;;;;;;;25.33;4.70;;;8.20;99.90;;;;;;4905447;29;20082;-50
2021/12/01 12:17:29;;;;;;;23.08;4.07;;;8.20;99.90;;;;;;4925119;29;20439;-51
2021/12/01 12:20:23;;;;;;;23.65;3.67;;;8.20;99.90;;;;;;4919353;29;20090;-50
2021/12/01 12:22:49;;;;;;;26.60;4.00;;;8.20;99.90;;;;;;4916472;29;20389;-52
2021/12/01 12:25:34;;;;;;;22.92;3.63;;;8.20;99.90;;;;;;4917910;29;20419;-51
2021/12/01 12:28:00;;;;;;;23.92;3.28;;;8.20;99.90;;;;;;4907608;29;20104;-49
2021/12/01 12:30:35;;;;;;;25.38;4.47;;;8.10;99.90;;;;;;4909147;29;20048;-49
2021/12/01 12:33:24;;;;;;;17.95;2.70;;;8.10;99.90;;;;;;4922434;29;20111;-51
2021/12/01 12:35:51;;;;;;;16.52;2.90;;;8.10;99.90;;;;;;4920136;29;20443;-52
2021/12/01 12:38:17;;;;;;;11.52;2.45;;;8.10;99.90;;;;;;4921770;29;20160;-52
2021/12/01 12:40:46;;;;;;;15.48;2.63;;;8.10;99.90;;;;;;4923435;29;20048;-49
2021/12/01 12:43:23;;;;;;;20.58;2.90;;;8.10;99.90;;;;;;4921237;29;20415;-49
2021/12/01 12:46:04;;;;;;;20.13;3.50;;;8.00;99.90;;;;;;4920086;29;20785;-51
2021/12/01 12:48:32;;;;;;;17.65;3.08;;;7.90;99.90;;;;;;4913407;29;20055;-51
2021/12/01 12:51:13;;;;;;;19.00;2.53;;;7.80;99.90;;;;;;4921699;29;20051;-52
2021/12/01 12:54:03;;;;;;;14.73;2.80;;;7.80;99.90;;;;;;4933365;29;20056;-50
2021/12/01 12:56:35;;;;;;;15.63;2.50;;;7.80;99.90;;;;;;4920220;29;20399;-50
2021/12/01 12:59:21;;;;;;;15.63;2.63;;;7.80;99.90;;;;;;4924492;29;20043;-50
2021/12/01 13:01:52;;;;;;;13.30;2.70;;;7.80;99.90;;;;;;4922370;29;20062;-48
2021/12/01 13:04:58;;;;;;;13.18;2.25;;;7.80;99.90;;;;;;4921768;29;20055;-51